Time;durP1;ratioP1;P1;durP2;ratioP2;P2;SDS_P1;SDS_P2;PMS_P1;PMS_P2;Temp;Humidity;BMP_temperature;BMP_pressure;BME280_temperature;BME280_humidity;BME280_pressure;Samples;Min_cycle;Max_cycle;Signal;HPM_P1;HPM_P2
2022/03/01 00:01:38;;;;;;;19.65;8.05;;;;;;;-5.37;67.98;101665.47;5032506;28;20513;-78
2022/03/01 00:04:06;;;;;;;20.25;8.05;;;;;;;-5.54;68.28;101646.78;5032180;28;20057;-76
2022/03/01 00:06:33;;;;;;;18.27;7.65;;;;;;;-5.45;68.49;101666.38;5033960;28;20387;-77
2022/03/01 00:08:59;;;;;;;19.42;8.68;;;;;;;-5.40;68.11;101667.75;5038647;28;20091;-78
2022/03/01 00:11:28;;;;;;;20.40;8.25;;;;;;;-5.37;67.74;101664.59;5048041;28;20075;-78
2022/03/01 00:13:55;;;;;;;21.35;9.07;;;;;;;-5.37;67.83;101655.28;5051770;28;20057;-78
2022/03/01 00:16:22;;;;;;;21.23;8.75;;;;;;;-5.33;67.73;101666.69;5036074;28;20060;-78
2022/03/01 00:18:49;;;;;;;20.85;7.97;;;;;;;-5.37;68.32;101652.75;5046856;28;20079;-76
2022/03/01 00:21:16;;;;;;;18.15;8.40;;;;;;;-5.45;68.15;101630.72;5055777;28;20082;-78
2022/03/01 00:23:42;;;;;;;24.58;8.77;;;;;;;-5.44;67.99;101623.97;5055826;28;20061;-77
2022/03/01 00:26:09;;;;;;;23.45;9.02;;;;;;;-5.28;67.66;101655.25;5055988;28;20057;-79
2022/03/01 00:28:36;;;;;;;22.98;7.97;;;;;;;-5.36;67.69;101646.88;5055685;28;20053;-77
2022/03/01 00:31:03;;;;;;;22.25;9.23;;;;;;;-5.46;68.05;101633.13;5055999;28;20056;-77
2022/03/01 00:33:30;;;;;;;17.33;7.70;;;;;;;-5.31;67.69;101656.63;5055750;28;20053;-78
2022/03/01 00:35:57;;;;;;;19.75;7.68;;;;;;;-5.43;68.06;101630.88;5047081;28;20064;-78
2022/03/01 00:38:24;;;;;;;20.52;7.72;;;;;;;-5.44;67.71;101647.81;5035844;28;20057;-76
2022/03/01 00:40:54;;;;;;;23.35;8.57;;;;;;;-5.61;68.24;101614.75;5035802;28;20050;-77
2022/03/01 00:43:21;;;;;;;17.83;8.13;;;;;;;-5.45;68.40;101651.09;5036664;28;20065;-79
2022/03/01 00:45:50;;;;;;;21.45;8.23;;;;;;;-5.47;68.04;101644.97;5055566;28;20527;-78
2022/03/01 00:48:18;;;;;;;19.85;8.80;;;;;;;-5.51;68.47;101632.69;5055562;28;20122;-77
2022/03/01 00:50:48;;;;;;;24.63;9.27;;;;;;;-5.43;68.09;101654.69;5055663;28;20103;-79
2022/03/01 00:53:15;;;;;;;;;;;;;;;-5.50;68.01;101643.78;5055861;28;20053;-76
2022/03/01 00:55:42;;;;;;;20.45;8.90;;;;;;;-5.52;68.00;101642.75;5055454;28;19929;-79
2022/03/01 00:58:10;;;;;;;18.33;8.05;;;;;;;-5.45;68.41;101630.72;5054324;28;20171;-79
2022/03/01 01:00:44;;;;;;;18.90;8.18;;;;;;;-5.50;67.98;101610.69;5055487;28;20049;-78
2022/03/01 01:03:11;;;;;;;19.50;8.27;;;;;;;-5.36;68.33;101653.63;5055186;28;20064;-78
2022/03/01 01:05:38;;;;;;;23.48;9.48;;;;;;;-5.35;68.24;101648.69;5054660;28;20053;-79
2022/03/01 01:08:08;;;;;;;26.65;8.90;;;;;;;-5.35;67.91;101641.03;5055323;28;20452;-77
2022/03/01 01:10:35;;;;;;;15.93;7.53;;;;;;;-5.43;68.10;101633.44;5055101;28;20065;-77
2022/03/01 01:13:02;;;;;;;18.55;7.47;;;;;;;-5.29;67.96;101648.38;5055637;28;20069;-77
2022/03/01 01:15:29;;;;;;;19.08;8.07;;;;;;;-5.46;68.10;101621.31;5060580;28;20064;-76
2022/03/01 01:17:56;;;;;;;17.05;7.55;;;;;;;-5.35;68.04;101645.25;5063429;28;20422;-78
2022/03/01 01:20:23;;;;;;;17.80;7.20;;;;;;;-5.50;68.01;101616.69;5066640;28;20059;-76
2022/03/01 01:22:52;;;;;;;20.73;7.75;;;;;;;-5.42;68.26;101623.41;5059185;28;20052;-76
2022/03/01 01:25:22;;;;;;;19.53;8.13;;;;;;;-5.33;67.83;101640.28;5054889;28;20053;-79
2022/03/01 01:27:52;;;;;;;20.92;8.43;;;;;;;-5.33;67.60;101638.66;5054953;28;20295;-77
2022/03/01 01:30:21;;;;;;;20.75;8.40;;;;;;;-5.41;67.57;101624.28;5052858;28;20061;-77
2022/03/01 01:32:49;;;;;;;22.40;8.68;;;;;;;-5.31;67.75;101643.88;5054447;28;20055;-77
2022/03/01 01:35:21;;;;;;;18.75;7.85;;;;;;;-5.37;68.06;101639.13;5054240;28;20049;-78
2022/03/01 01:37:49;;;;;;;17.13;7.40;;;;;;;-5.44;67.81;101635.09;5054722;28;20055;-76
2022/03/01 01:40:20;;;;;;;18.65;7.15;;;;;;;-5.43;68.09;101634.31;5054014;28;20497;-78
2022/03/01 01:42:48;;;;;;;16.50;7.30;;;;;;;-5.46;67.57;101628.03;5054035;28;20055;-77
2022/03/01 01:45:15;;;;;;;18.67;7.03;;;;;;;-5.53;68.01;101631.66;5053775;28;20098;-77
2022/03/01 01:47:45;;;;;;;;;;;;;;;-5.65;68.13;101625.41;5054536;28;20052;-78
2022/03/01 01:50:13;;;;;;;21.70;7.60;;;;;;;-5.61;68.00;101633.47;5053558;28;19928;-77
2022/03/01 01:52:40;;;;;;;19.63;7.78;;;;;;;-5.59;68.09;101628.53;5053848;28;20048;-79
2022/03/01 01:55:07;;;;;;;15.82;6.85;;;;;;;-5.56;67.70;101637.34;5053159;28;20071;-78
2022/03/01 01:57:34;;;;;;;17.48;6.85;;;;;;;-5.56;67.83;101636.47;5036629;28;20055;-77
2022/03/01 02:00:03;;;;;;;18.05;6.72;;;;;;;-5.71;67.97;101609.53;5033679;28;20054;-77
2022/03/01 02:02:38;;;;;;;17.75;6.57;;;;;;;-5.63;68.15;101618.81;5033747;28;20060;-79
2022/03/01 02:05:07;;;;;;;16.25;7.13;;;;;;;-5.54;67.75;101629.84;5033516;28;20053;-79
2022/03/01 02:07:37;;;;;;;16.05;6.63;;;;;;;-5.59;67.88;101619.25;5033676;28;20490;-77
2022/03/01 02:10:07;;;;;;;19.50;7.03;;;;;;;-5.73;68.04;101594.09;5033629;28;20081;-78
2022/03/01 02:12:35;;;;;;;16.83;6.72;;;;;;;-5.57;68.09;101642.28;5033929;28;20045;-77
2022/03/01 02:15:02;;;;;;;15.57;6.97;;;;;;;-5.64;68.19;101632.28;5033640;28;20504;-77
2022/03/01 02:17:30;;;;;;;14.93;6.60;;;;;;;-5.59;67.94;101638.72;5033383;28;20050;-77
2022/03/01 02:19:57;;;;;;;18.17;7.38;;;;;;;-5.58;67.89;101632.88;5033561;28;20053;-78
2022/03/01 02:22:31;;;;;;;18.20;6.35;;;;;;;-5.61;68.19;101650.41;5033369;28;20053;-78
2022/03/01 02:24:58;;;;;;;15.10;6.03;;;;;;;-5.75;68.43;101628.69;5033518;28;20046;-77
2022/03/01 02:27:25;;;;;;;14.05;6.25;;;;;;;-5.72;68.29;101635.72;5033764;28;20050;-77
2022/03/01 02:29:52;;;;;;;16.10;6.88;;;;;;;-5.72;68.50;101641.75;5038325;28;20061;-77
2022/03/01 02:32:19;;;;;;;16.23;6.82;;;;;;;-5.73;68.44;101650.09;5053358;28;20147;-77
2022/03/01 02:34:47;;;;;;;15.35;6.28;;;;;;;-5.74;68.50;101642.31;5053084;28;20521;-78
2022/03/01 02:37:15;;;;;;;16.67;6.75;;;;;;;-5.81;68.44;101634.09;5052680;28;20057;-77
2022/03/01 02:39:42;;;;;;;19.73;7.38;;;;;;;-5.79;68.51;101640.22;5052649;28;20467;-78
2022/03/01 02:42:09;;;;;;;17.33;6.93;;;;;;;-5.81;68.30;101631.56;5052946;28;20060;-77
2022/03/01 02:44:36;;;;;;;18.50;6.97;;;;;;;-5.78;68.85;101630.97;5053025;28;20086;-77
2022/03/01 02:47:04;;;;;;;17.55;6.80;;;;;;;-5.77;68.70;101628.53;5053088;28;20052;-77
2022/03/01 02:49:31;;;;;;;17.75;7.28;;;;;;;-5.90;68.28;101614.50;5052888;28;20555;-78
2022/03/01 02:51:58;;;;;;;15.93;6.78;;;;;;;-5.80;68.29;101629.91;5053183;28;20075;-78
2022/03/01 02:54:25;;;;;;;16.35;6.85;;;;;;;-5.85;68.63;101619.28;5052784;28;20095;-77
2022/03/01 02:56:52;;;;;;;16.20;6.43;;;;;;;-5.90;68.55;101620.47;5053255;28;20072;-78
2022/03/01 02:59:19;;;;;;;16.95;6.47;;;;;;;-5.90;68.34;101624.66;5052646;28;20055;-79
2022/03/01 03:01:45;;;;;;;15.93;6.68;;;;;;;-6.01;68.70;101619.47;5052750;28;20053;-79
2022/03/01 03:04:12;;;;;;;15.02;6.88;;;;;;;-6.01;68.99;101626.22;5052880;28;20053;-79
2022/03/01 03:06:42;;;;;;;17.42;6.85;;;;;;;-6.02;68.83;101620.22;5052707;28;20501;-79
2022/03/01 03:09:09;;;;;;;18.23;6.90;;;;;;;-6.04;68.79;101631.91;5052690;28;20485;-78
2022/03/01 03:11:36;;;;;;;14.57;6.45;;;;;;;-6.12;68.85;101616.63;5053044;28;20487;-77
2022/03/01 03:14:03;;;;;;;13.95;6.50;;;;;;;-6.20;69.36;101600.63;5053124;28;20079;-81
2022/03/01 03:16:30;;;;;;;14.35;6.88;;;;;;;-6.04;69.38;101631.00;5053129;28;20055;-78
2022/03/01 03:18:57;;;;;;;14.23;7.30;;;;;;;-6.02;69.22;101624.44;5053216;28;20056;-78
2022/03/01 03:21:24;;;;;;;15.93;7.65;;;;;;;-6.02;69.04;101615.13;5052658;28;20546;-79
2022/03/01 03:23:51;;;;;;;15.00;7.88;;;;;;;-6.00;69.22;101625.44;5053440;28;20510;-79
2022/03/01 03:26:18;;;;;;;19.13;7.70;;;;;;;-6.04;68.98;101603.91;5053873;28;20057;-79
2022/03/01 03:28:46;;;;;;;16.63;7.00;;;;;;;-6.00;69.06;101615.25;5038592;28;20049;-79
2022/03/01 03:31:13;;;;;;;19.63;7.57;;;;;;;-6.07;69.38;101611.22;5055377;28;20136;-79
2022/03/01 03:33:40;;;;;;;14.93;7.82;;;;;;;-6.07;69.30;101615.44;5053833;28;20111;-80
2022/03/01 03:36:07;;;;;;;17.38;7.65;;;;;;;-6.10;68.72;101608.41;5052791;28;20080;-78
2022/03/01 03:38:34;;;;;;;17.10;6.85;;;;;;;-6.12;69.08;101614.97;5052593;28;20532;-78
2022/03/01 03:41:01;;;;;;;13.80;6.82;;;;;;;-6.07;69.32;101616.31;5052366;28;20057;-79
2022/03/01 03:43:28;;;;;;;17.35;7.90;;;;;;;-6.06;69.41;101619.78;5052200;28;20053;-79
2022/03/01 03:45:55;;;;;;;16.55;7.68;;;;;;;-6.04;68.99;101628.47;5052562;28;20053;-78
2022/03/01 03:48:22;;;;;;;16.45;7.28;;;;;;;-6.04;69.05;101625.91;5055845;28;20139;-78
2022/03/01 03:50:48;;;;;;;18.40;7.35;;;;;;;-6.05;69.16;101629.19;5056447;28;20060;-78
2022/03/01 03:53:15;;;;;;;18.00;7.63;;;;;;;-6.05;69.22;101635.19;5052133;28;20059;-78
2022/03/01 03:55:42;;;;;;;17.92;7.63;;;;;;;-6.05;69.00;101634.28;5042934;28;20061;-79
2022/03/01 03:58:09;;;;;;;15.13;6.93;;;;;;;-6.13;69.48;101630.09;5056324;28;20049;-78
2022/03/01 04:00:36;;;;;;;17.85;7.22;;;;;;;-6.27;69.46;101594.03;5055939;28;20064;-79
2022/03/01 04:03:03;;;;;;;14.90;7.00;;;;;;;-6.09;68.99;101627.09;5056501;28;20048;-78
2022/03/01 04:05:30;;;;;;;12.90;6.60;;;;;;;-6.16;68.85;101627.25;5051506;28;20151;-78
2022/03/01 04:07:58;;;;;;;18.80;8.10;;;;;;;-6.12;68.78;101630.25;5036023;28;20084;-78
2022/03/01 04:10:24;;;;;;;17.10;6.40;;;;;;;-6.13;69.04;101628.47;5049985;28;20519;-77
2022/03/01 04:12:51;;;;;;;15.32;6.82;;;;;;;-6.10;69.23;101632.94;5040674;28;20057;-79
2022/03/01 04:15:18;;;;;;;16.08;6.80;;;;;;;-6.14;69.37;101633.41;5036024;28;20049;-79
2022/03/01 04:17:45;;;;;;;15.50;6.47;;;;;;;-6.18;69.63;101629.66;5035993;28;20049;-79
2022/03/01 04:20:12;;;;;;;17.25;6.78;;;;;;;-6.26;69.26;101620.34;5036056;28;20559;-77
2022/03/01 04:22:40;;;;;;;14.05;6.70;;;;;;;-6.30;69.37;101629.34;5035910;28;20056;-77
2022/03/01 04:25:08;;;;;;;15.55;7.50;;;;;;;-6.31;69.65;101636.81;5036025;28;20093;-77
2022/03/01 04:27:35;;;;;;;18.00;8.02;;;;;;;-6.33;69.28;101629.03;5035940;28;20107;-78
2022/03/01 04:30:06;;;;;;;19.98;7.95;;;;;;;-6.33;69.29;101633.22;5036084;28;20061;-78
2022/03/01 04:32:34;;;;;;;21.10;8.20;;;;;;;-6.31;69.39;101627.53;5035671;28;20076;-78
2022/03/01 04:35:02;;;;;;;15.82;7.80;;;;;;;-6.18;69.38;101637.28;5035792;28;20060;-76
2022/03/01 04:37:30;;;;;;;17.15;7.30;;;;;;;-6.12;68.62;101619.19;5035844;28;20045;-79
2022/03/01 04:39:57;;;;;;;12.57;6.10;;;;;;;-5.98;68.76;101613.75;5035857;28;20056;-78
2022/03/01 04:42:24;;;;;;;14.45;6.35;;;;;;;-5.85;68.16;101608.19;5039670;28;20056;-79
2022/03/01 04:44:52;;;;;;;12.43;5.90;;;;;;;-5.78;67.65;101608.94;5056494;28;20053;-78
2022/03/01 04:47:20;;;;;;;15.82;6.28;;;;;;;-5.54;67.26;101628.97;5049500;28;20067;-77
2022/03/01 04:49:47;;;;;;;13.27;6.90;;;;;;;-5.60;67.19;101608.91;5035272;28;20047;-78
2022/03/01 04:52:15;;;;;;;17.92;8.55;;;;;;;-5.39;66.82;101623.69;5035429;28;20054;-78
2022/03/01 04:54:41;;;;;;;16.85;7.32;;;;;;;-5.39;66.47;101600.75;5053626;28;20053;-78
2022/03/01 04:57:09;;;;;;;17.15;7.32;;;;;;;-5.03;66.39;101643.19;5049841;28;20041;-77
2022/03/01 04:59:35;;;;;;;24.08;7.95;;;;;;;-4.86;66.18;101647.31;5044743;28;20064;-76
2022/03/01 05:02:03;;;;;;;14.43;7.22;;;;;;;-4.81;66.24;101628.25;5042387;28;20045;-77
2022/03/01 05:04:30;;;;;;;13.43;7.30;;;;;;;-4.53;65.85;101643.53;5043360;28;20065;-78
2022/03/01 05:06:57;;;;;;;20.92;7.82;;;;;;;-4.44;65.82;101623.97;5036360;28;20413;-79
2022/03/01 05:09:24;;;;;;;16.90;7.20;;;;;;;-4.20;65.36;101637.16;5035204;28;20148;-76
2022/03/01 05:11:52;;;;;;;17.02;7.03;;;;;;;-4.30;64.68;101597.19;5034981;28;20079;-77
2022/03/01 05:14:19;;;;;;;20.45;7.45;;;;;;;-4.06;64.26;101608.69;5035153;28;20062;-78
2022/03/01 05:16:46;;;;;;;20.33;6.80;;;;;;;-3.76;63.91;101630.06;5034735;28;20049;-80
2022/03/01 05:19:14;;;;;;;16.38;6.72;;;;;;;-3.68;63.50;101603.50;5052976;28;20067;-77
2022/03/01 05:21:41;;;;;;;13.73;6.45;;;;;;;-3.41;62.96;101616.94;5052672;28;20045;-78
2022/03/01 05:24:08;;;;;;;16.77;7.32;;;;;;;-3.20;62.44;101635.78;5054265;28;20052;-78
2022/03/01 05:26:36;;;;;;;15.73;6.70;;;;;;;-3.11;62.08;101619.56;5051255;28;20072;-78
2022/03/01 05:29:04;;;;;;;19.60;8.52;;;;;;;-3.01;61.25;101616.16;5054194;28;20048;-80
2022/03/01 05:31:31;;;;;;;20.00;9.48;;;;;;;-2.88;60.76;101605.31;5052788;28;20045;-80
2022/03/01 05:33:58;;;;;;;27.75;8.77;;;;;;;-2.90;60.70;101566.81;5053841;28;20417;-77
2022/03/01 05:36:25;;;;;;;22.80;9.50;;;;;;;-2.46;59.70;101622.47;5053830;28;20496;-80
2022/03/01 05:38:52;;;;;;;17.50;8.23;;;;;;;-2.29;59.32;101627.31;5054108;28;20037;-79
2022/03/01 05:41:20;;;;;;;17.83;7.00;;;;;;;-2.15;58.22;101625.91;5053795;28;20132;-78
2022/03/01 05:43:47;;;;;;;14.45;6.18;;;;;;;-2.24;58.25;101622.56;5052078;28;20120;-79
2022/03/01 05:46:14;;;;;;;17.48;5.63;;;;;;;-2.29;58.26;101632.44;5047932;28;20475;-82
2022/03/01 05:48:42;;;;;;;18.48;8.38;;;;;;;-2.36;57.95;101619.91;5052943;28;20060;-80
2022/03/01 05:51:09;;;;;;;19.45;9.52;;;;;;;-2.31;57.95;101625.41;5054069;28;20102;-78
2022/03/01 05:53:36;;;;;;;18.45;8.43;;;;;;;-2.18;57.80;101638.44;5051140;28;20044;-78
2022/03/01 05:56:03;;;;;;;14.45;6.60;;;;;;;-2.14;57.17;101625.13;5053683;28;20044;-81
2022/03/01 05:58:30;;;;;;;14.90;6.32;;;;;;;-2.05;57.06;101627.53;5053626;28;20041;-78
2022/03/01 06:01:17;;;;;;;12.10;6.05;;;;;;;-2.01;56.85;101624.47;5048082;28;20095;-79
2022/03/01 06:03:46;;;;;;;17.27;6.87;;;;;;;-2.07;56.92;101618.84;5050483;28;20102;-78
2022/03/01 06:06:13;;;;;;;17.98;6.97;;;;;;;-1.97;56.92;101620.50;5053419;28;20053;-78
2022/03/01 06:08:40;;;;;;;12.13;6.22;;;;;;;-1.95;56.67;101611.28;5051377;28;20121;-77
2022/03/01 06:11:07;;;;;;;13.98;6.47;;;;;;;-1.72;56.55;101631.97;5051741;28;20064;-79
2022/03/01 06:13:34;;;;;;;15.65;7.50;;;;;;;-1.57;55.95;101622.06;5052464;28;20049;-78
2022/03/01 06:16:01;;;;;;;16.23;6.20;;;;;;;-1.40;55.27;101617.34;5052552;28;20048;-79
2022/03/01 06:18:28;;;;;;;15.48;7.05;;;;;;;-1.20;55.33;101622.41;5048129;28;20488;-77
2022/03/01 06:20:55;;;;;;;15.00;7.10;;;;;;;-1.04;54.63;101607.41;5050888;28;20583;-77
2022/03/01 06:23:22;;;;;;;13.07;6.25;;;;;;;-0.87;54.12;101620.66;5053345;28;20053;-79
2022/03/01 06:25:49;;;;;;;16.48;6.35;;;;;;;-0.74;53.78;101615.69;5053070;28;20144;-78
2022/03/01 06:28:16;;;;;;;14.50;6.60;;;;;;;-0.71;53.50;101618.50;5052862;28;20500;-78
2022/03/01 06:30:43;;;;;;;14.30;6.18;;;;;;;-0.79;53.59;101604.19;5053540;28;20507;-79
2022/03/01 06:33:10;;;;;;;16.80;5.95;;;;;;;-0.67;52.85;101612.84;5053540;28;20045;-79
2022/03/01 06:35:37;;;;;;;14.05;7.07;;;;;;;-0.73;52.46;101604.66;5053435;28;20063;-79
2022/03/01 06:38:04;;;;;;;15.88;7.00;;;;;;;-0.65;52.35;101592.41;5052984;28;20045;-78
2022/03/01 06:40:31;;;;;;;14.68;6.72;;;;;;;-0.52;52.22;101613.09;5052722;28;20045;-78
2022/03/01 06:42:57;;;;;;;13.05;6.35;;;;;;;-0.52;51.80;101610.53;5052438;28;20048;-78
2022/03/01 06:45:24;;;;;;;19.23;6.80;;;;;;;-0.46;51.80;101604.97;5053844;28;20053;-76
2022/03/01 06:47:51;;;;;;;13.82;6.82;;;;;;;-0.36;51.97;101611.69;5053571;28;20507;-78
2022/03/01 06:50:18;;;;;;;16.77;6.35;;;;;;;-0.39;51.39;101609.78;5052794;28;20045;-78
2022/03/01 06:52:45;;;;;;;18.00;6.32;;;;;;;-0.22;51.14;101603.31;5049575;28;20049;-77
2022/03/01 06:55:13;;;;;;;14.48;5.45;;;;;;;-0.12;50.52;101620.34;5052998;28;20059;-78
2022/03/01 06:57:41;;;;;;;12.02;5.60;;;;;;;-0.13;50.68;101604.03;5053046;28;20079;-76
2022/03/01 07:00:09;;;;;;;12.27;5.68;;;;;;;0.01;50.67;101604.16;5053191;28;20063;-77
2022/03/01 07:02:40;;;;;;;15.30;5.95;;;;;;;0.18;50.05;101609.72;5053763;28;20103;-77
2022/03/01 07:05:11;;;;;;;15.45;6.90;;;;;;;0.18;49.73;101601.13;5054339;28;20055;-78
2022/03/01 07:07:39;;;;;;;18.67;8.68;;;;;;;0.35;49.74;101610.06;5053129;28;20103;-78
2022/03/01 07:10:11;;;;;;;23.00;8.68;;;;;;;0.45;49.41;101624.47;5052662;28;20057;-78
2022/03/01 07:12:40;;;;;;;14.63;6.55;;;;;;;0.48;48.94;101620.44;5053220;28;20059;-78
2022/03/01 07:15:07;;;;;;;18.05;6.28;;;;;;;0.54;48.99;101594.28;5052540;28;20077;-78
2022/03/01 07:17:34;;;;;;;13.73;5.60;;;;;;;0.71;49.11;101622.09;5052454;28;20566;-78
2022/03/01 07:20:03;;;;;;;10.57;4.85;;;;;;;0.78;48.32;101614.03;5050932;28;20061;-78
2022/03/01 07:22:30;;;;;;;11.63;5.57;;;;;;;0.92;48.35;101620.13;5052362;28;20147;-78
2022/03/01 07:24:57;;;;;;;11.25;5.25;;;;;;;0.99;48.07;101613.72;5052425;28;20053;-77
2022/03/01 07:27:27;;;;;;;14.95;5.80;;;;;;;1.07;47.87;101606.56;5052546;28;20064;-78
2022/03/01 07:29:55;;;;;;;10.30;5.47;;;;;;;1.30;47.85;101616.75;5052365;28;20103;-78
2022/03/01 07:32:21;;;;;;;12.63;4.80;;;;;;;1.36;46.93;101619.75;5052167;28;20148;-77
2022/03/01 07:34:51;;;;;;;11.52;4.88;;;;;;;1.23;46.82;101581.97;5051925;28;20592;-79
2022/03/01 07:37:18;;;;;;;9.32;4.82;;;;;;;1.40;46.37;101637.19;5045594;28;20080;-80
2022/03/01 07:39:47;;;;;;;7.55;4.15;;;;;;;1.40;46.45;101620.88;5040636;28;20065;-81
2022/03/01 07:42:14;;;;;;;7.57;4.28;;;;;;;1.46;46.27;101626.41;5031406;28;20054;-81
2022/03/01 07:44:41;;;;;;;6.20;4.28;;;;;;;1.33;46.13;101587.75;5031422;28;20501;-80
2022/03/01 07:47:08;;;;;;;7.90;4.68;;;;;;;1.56;46.02;101625.38;5030328;28;20512;-79
2022/03/01 07:49:35;;;;;;;9.10;4.78;;;;;;;1.54;46.10;101622.69;5030526;28;20053;-79
2022/03/01 07:52:02;;;;;;;7.82;4.50;;;;;;;1.56;45.72;101609.91;5031682;28;20069;-79
2022/03/01 07:54:29;;;;;;;8.88;4.60;;;;;;;1.65;45.43;101615.66;5031720;28;20061;-80
2022/03/01 07:56:56;;;;;;;8.85;4.43;;;;;;;1.62;45.56;101608.63;5030218;28;20296;-80
2022/03/01 07:59:23;;;;;;;8.88;4.47;;;;;;;1.68;45.24;101605.59;5031772;28;20144;-80
2022/03/01 08:01:50;;;;;;;7.28;4.75;;;;;;;1.72;45.33;101609.25;5031257;28;20090;-78
2022/03/01 08:04:19;;;;;;;8.10;5.03;;;;;;;1.61;44.99;101591.41;5031559;28;20054;-78
2022/03/01 08:06:47;;;;;;;9.00;4.47;;;;;;;1.54;45.01;101573.72;5032852;28;20093;-78
2022/03/01 08:09:13;;;;;;;8.25;4.60;;;;;;;1.72;44.92;101591.22;5034496;28;20052;-78
2022/03/01 08:11:40;;;;;;;9.85;4.43;;;;;;;1.76;44.79;101596.66;5033504;28;20049;-78
2022/03/01 08:14:09;;;;;;;9.27;4.13;;;;;;;1.84;44.52;101592.03;5033038;28;20058;-78
2022/03/01 08:16:40;;;;;;;6.63;3.80;;;;;;;1.78;44.08;101582.19;5042617;28;20083;-78
2022/03/01 08:19:07;;;;;;;9.55;4.00;;;;;;;1.96;44.03;101599.69;5052948;28;20049;-78
2022/03/01 08:21:34;;;;;;;7.93;4.05;;;;;;;2.01;44.02;101612.06;5038290;28;20567;-79
2022/03/01 08:24:01;;;;;;;10.30;4.75;;;;;;;2.12;43.65;101596.41;5032402;28;20064;-79
2022/03/01 08:26:28;;;;;;;8.52;4.45;;;;;;;2.27;43.08;101596.53;5032606;28;20053;-79
2022/03/01 08:28:56;;;;;;;9.90;4.25;;;;;;;2.39;43.42;101595.63;5031479;28;20141;-82
2022/03/01 08:31:22;;;;;;;8.82;4.53;;;;;;;2.51;42.74;101592.03;5039450;28;20057;-80
2022/03/01 08:33:49;;;;;;;6.78;4.10;;;;;;;2.60;42.78;101590.03;5044438;28;20057;-81
2022/03/01 08:36:17;;;;;;;9.48;4.32;;;;;;;2.55;42.79;101584.56;5035659;28;20065;-78
2022/03/01 08:38:44;;;;;;;8.57;4.88;;;;;;;2.60;42.70;101585.78;5038991;28;20044;-79
2022/03/01 08:41:11;;;;;;;9.75;4.13;;;;;;;2.69;42.48;101600.03;5057450;28;20103;-80
2022/03/01 08:43:38;;;;;;;11.45;4.22;;;;;;;2.71;42.27;101601.94;5055821;28;20143;-78
2022/03/01 08:46:09;;;;;;;9.13;4.65;;;;;;;2.75;41.69;101583.25;5064507;28;20091;-79
2022/03/01 08:48:37;;;;;;;9.85;3.53;;;;;;;2.83;41.76;101568.25;5065330;28;20048;-78
2022/03/01 08:51:05;;;;;;;6.45;3.35;;;;;;;3.05;40.97;101593.69;5068125;28;20053;-79
2022/03/01 08:53:32;;;;;;;6.70;3.55;;;;;;;3.08;41.15;101587.03;5059024;28;20072;-78
2022/03/01 08:56:00;;;;;;;7.93;4.13;;;;;;;3.07;40.68;101566.25;5055412;28;20079;-80
2022/03/01 08:58:27;;;;;;;10.45;5.47;;;;;;;3.26;40.71;101596.69;5056023;28;20133;-79
2022/03/01 09:00:54;;;;;;;33.75;14.73;;;;;;;3.35;41.89;101588.59;5055291;28;20138;-80
2022/03/01 09:03:23;;;;;;;35.63;18.15;;;;;;;3.46;42.68;101590.13;5054939;28;20075;-79
2022/03/01 09:06:10;;;;;;;41.92;20.75;;;;;;;3.50;43.11;101584.34;5055157;28;20111;-79
2022/03/01 09:08:40;;;;;;;44.47;22.45;;;;;;;3.60;43.69;101584.09;5053862;28;20053;-80
2022/03/01 09:11:08;;;;;;;43.90;23.48;;;;;;;3.67;43.89;101572.41;5054900;28;20148;-80
2022/03/01 09:13:36;;;;;;;48.22;23.88;;;;;;;3.77;43.47;101584.19;5055637;28;20477;-79
2022/03/01 09:16:04;;;;;;;46.00;24.48;;;;;;;3.68;43.85;101579.38;5054905;28;20080;-80
2022/03/01 09:18:31;;;;;;;43.72;23.30;;;;;;;3.50;44.24;101550.75;5053544;28;20053;-79
2022/03/01 09:20:58;;;;;;;44.17;23.10;;;;;;;3.65;44.15;101553.34;5054734;28;20094;-79
2022/03/01 09:23:28;;;;;;;50.40;25.48;;;;;;;3.68;44.36;101566.47;5054862;28;20136;-80
2022/03/01 09:25:55;;;;;;;54.33;27.52;;;;;;;3.59;44.06;101558.13;5054377;28;20053;-80
2022/03/01 09:28:22;;;;;;;50.90;24.67;;;;;;;3.46;44.47;101528.09;5054262;28;20065;-80
2022/03/01 09:30:50;;;;;;;49.75;23.08;;;;;;;3.69;44.38;101568.22;5053238;28;20091;-82
2022/03/01 09:33:18;;;;;;;46.88;22.92;;;;;;;3.58;44.30;101546.03;5054368;28;20052;-82
2022/03/01 09:35:47;;;;;;;50.65;24.50;;;;;;;3.58;44.54;101548.63;5053753;28;20063;-79
2022/03/01 09:38:14;;;;;;;47.85;24.75;;;;;;;3.60;44.11;101544.44;5054600;28;20064;-80
2022/03/01 09:40:46;;;;;;;47.20;21.30;;;;;;;3.68;43.87;101558.69;5054263;28;20071;-83
2022/03/01 09:43:15;;;;;;;37.85;19.65;;;;;;;3.65;43.62;101553.34;5054508;28;20045;-80
2022/03/01 09:45:42;;;;;;;38.17;18.60;;;;;;;3.62;43.36;101553.19;5053991;28;20131;-79
2022/03/01 09:48:10;;;;;;;35.85;17.13;;;;;;;3.53;43.64;101558.69;5053690;28;20049;-79
2022/03/01 09:50:40;;;;;;;37.10;16.63;;;;;;;3.52;43.79;101558.59;5054136;28;20139;-79
2022/03/01 09:53:08;;;;;;;34.95;16.23;;;;;;;3.35;43.57;101548.16;5051059;28;20053;-80
2022/03/01 09:55:35;;;;;;;33.25;16.45;;;;;;;3.55;43.66;101551.00;5053741;28;20048;-79
2022/03/01 09:58:08;;;;;;;31.15;16.00;;;;;;;3.54;43.63;101565.63;5052012;28;20447;-79
2022/03/01 10:01:35;;;;;;;33.50;15.90;;;;;;;3.42;43.83;101549.41;5047532;28;20087;-78
2022/03/01 10:04:10;;;;;;;30.58;13.73;;;;;;;3.42;43.71;101550.31;5047515;28;20087;-80
2022/03/01 10:06:43;;;;;;;28.05;13.75;;;;;;;3.32;43.77;101514.41;5034164;28;20387;-80
2022/03/01 10:09:16;;;;;;;24.85;12.70;;;;;;;3.50;43.09;101540.41;5033986;28;20056;-79
2022/03/01 10:11:47;;;;;;;28.80;12.35;;;;;;;3.26;43.43;101503.69;5032951;28;20107;-79
2022/03/01 10:14:15;;;;;;;24.83;12.40;;;;;;;3.45;42.37;101534.09;5034023;28;20140;-79
2022/03/01 10:16:45;;;;;;;27.40;10.95;;;;;;;3.56;42.82;101537.31;5033950;28;20057;-80
2022/03/01 10:19:30;;;;;;;22.92;11.52;;;;;;;3.58;42.62;101521.06;5033569;28;20051;-80
2022/03/01 10:22:00;;;;;;;24.45;9.98;;;;;;;3.84;41.87;101539.78;5032348;28;20442;-79
2022/03/01 10:24:28;;;;;;;23.85;10.32;;;;;;;3.80;42.08;101540.41;5033914;28;20084;-79
2022/03/01 10:27:01;;;;;;;20.27;9.23;;;;;;;3.59;41.55;101504.78;5042877;28;20056;-79
2022/03/01 10:29:47;;;;;;;17.90;9.40;;;;;;;3.82;41.16;101525.88;5051196;28;20048;-79
2022/03/01 10:32:14;;;;;;;17.63;9.07;;;;;;;3.90;40.80;101515.16;5050926;28;20139;-79
2022/03/01 10:34:56;;;;;;;18.30;8.88;;;;;;;3.90;40.71;101507.41;5056102;28;20092;-79
2022/03/01 10:37:29;;;;;;;18.67;8.45;;;;;;;4.10;40.88;101512.81;5053727;28;20049;-78
2022/03/01 10:40:13;;;;;;;20.05;9.50;;;;;;;4.01;40.90;101478.69;5052246;28;20079;-78
2022/03/01 10:42:45;;;;;;;19.38;9.23;;;;;;;4.02;40.81;101476.19;5066182;28;20117;-77
2022/03/01 10:45:13;;;;;;;19.77;9.35;;;;;;;4.18;40.03;101480.50;5068896;28;20125;-77
2022/03/01 10:47:51;;;;;;;22.27;9.60;;;;;;;4.37;40.39;101509.97;5062980;28;20132;-77
2022/03/01 10:50:18;;;;;;;21.90;9.93;;;;;;;4.10;40.30;101463.66;5048867;28;20052;-78
2022/03/01 10:52:46;;;;;;;20.00;9.27;;;;;;;4.26;40.71;101497.34;5057307;28;20053;-77
2022/03/01 10:55:27;;;;;;;23.25;9.43;;;;;;;4.36;40.67;101496.13;5051277;28;20416;-78
2022/03/01 10:58:10;;;;;;;18.85;9.32;;;;;;;4.34;40.63;101477.03;5049765;28;20467;-78
2022/03/01 11:00:38;;;;;;;20.73;9.18;;;;;;;4.40;40.33;101473.91;5050575;28;20061;-80
2022/03/01 11:03:08;;;;;;;17.25;7.95;;;;;;;4.53;39.47;101497.06;5054350;28;20041;-79
2022/03/01 11:05:35;;;;;;;16.67;7.75;;;;;;;4.56;39.32;101486.88;5054137;28;20090;-80
2022/03/01 11:08:30;;;;;;;14.60;7.20;;;;;;;4.55;39.76;101484.19;5053119;28;20500;-79
2022/03/01 11:10:59;;;;;;;11.80;6.00;;;;;;;4.58;39.10;101476.59;5053638;28;20061;-79
2022/03/01 11:13:27;;;;;;;15.70;6.78;;;;;;;4.46;38.89;101461.31;5054238;28;20099;-78
2022/03/01 11:16:03;;;;;;;13.90;6.25;;;;;;;4.62;39.15;101469.06;5053601;28;20051;-78
2022/03/01 11:18:51;;;;;;;15.93;6.55;;;;;;;4.65;38.79;101471.84;5053300;28;20056;-81
2022/03/01 11:21:19;;;;;;;11.75;5.95;;;;;;;4.66;38.33;101455.47;5053866;28;20067;-81
2022/03/01 11:23:48;;;;;;;14.48;6.57;;;;;;;4.65;38.06;101471.84;5053621;28;20044;-78
2022/03/01 11:26:18;;;;;;;13.60;6.15;;;;;;;4.70;38.15;101469.47;5053471;28;20060;-80
2022/03/01 11:28:56;;;;;;;13.05;5.80;;;;;;;4.68;38.19;101468.50;5053168;28;20063;-78